Time;durP1;ratioP1;P1;durP2;ratioP2;P2;SDS_P1;SDS_P2;PMS_P1;PMS_P2;Temp;Humidity;BMP_temperature;BMP_pressure;BME280_temperature;BME280_humidity;BME280_pressure;Samples;Min_cycle;Max_cycle;Signal;HPM_P1;HPM_P2
2021/06/17 00:01:32;;;;;;;2.03;1.83;;;25.10;99.90;;;;;;5066601;28;20420;-61
2021/06/17 00:03:57;;;;;;;2.75;2.10;;;25.10;99.90;;;;;;5066686;28;20050;-61
2021/06/17 00:06:23;;;;;;;2.33;2.00;;;25.20;99.90;;;;;;5086331;28;20032;-61
2021/06/17 00:08:49;;;;;;;1.80;1.70;;;25.00;99.90;;;;;;5086174;28;20528;-61
2021/06/17 00:11:15;;;;;;;1.60;1.50;;;25.10;99.90;;;;;;5086270;28;20032;-60
2021/06/17 00:13:40;;;;;;;1.70;1.60;;;25.10;99.90;;;;;;5086302;28;20043;-60
2021/06/17 00:16:07;;;;;;;2.22;2.03;;;25.00;99.90;;;;;;5077007;28;20024;-61
2021/06/17 00:18:33;;;;;;;2.90;2.58;;;24.90;99.90;;;;;;5086198;28;20702;-61
2021/06/17 00:21:03;;;;;;;3.60;2.58;;;24.80;99.90;;;;;;5086641;28;20035;-61
2021/06/17 00:23:32;;;;;;;3.28;2.97;;;24.80;99.90;;;;;;5086009;28;20556;-62
2021/06/17 00:25:58;;;;;;;3.38;2.40;;;24.80;99.90;;;;;;5068717;28;20021;-61
2021/06/17 00:28:25;;;;;;;2.70;2.50;;;24.80;99.90;;;;;;5066069;28;20031;-61
2021/06/17 00:30:52;;;;;;;2.45;2.25;;;24.80;99.90;;;;;;5066199;28;20021;-61
2021/06/17 00:33:18;;;;;;;2.10;1.90;;;24.80;99.90;;;;;;5065894;28;20025;-60
2021/06/17 00:35:44;;;;;;;2.20;2.00;;;24.80;99.90;;;;;;5064881;28;20506;-63
2021/06/17 00:38:10;;;;;;;2.22;2.03;;;24.80;99.90;;;;;;5066145;28;20032;-61
2021/06/17 00:40:37;;;;;;;1.92;1.83;;;24.70;99.90;;;;;;5065814;28;20071;-61
2021/06/17 00:43:04;;;;;;;2.45;2.25;;;24.80;99.90;;;;;;5069980;28;20044;-61
2021/06/17 00:45:33;;;;;;;2.55;2.35;;;24.70;99.90;;;;;;5071443;28;20024;-61
2021/06/17 00:47:59;;;;;;;2.92;2.00;;;24.60;99.90;;;;;;5070269;28;20032;-61
2021/06/17 00:50:35;;;;;;;2.28;2.00;;;24.70;99.90;;;;;;5069771;28;20032;-60
2021/06/17 00:53:00;;;;;;;2.72;1.90;;;24.70;99.90;;;;;;5087350;28;20508;-60
2021/06/17 00:55:27;;;;;;;2.10;1.90;;;24.80;99.90;;;;;;5071553;28;20040;-60
2021/06/17 00:57:53;;;;;;;2.33;2.13;;;24.70;99.90;;;;;;5069550;28;20051;-61
2021/06/17 01:00:20;;;;;;;3.25;2.53;;;24.60;99.90;;;;;;5069346;28;20039;-61
2021/06/17 01:02:46;;;;;;;2.50;2.30;;;24.60;99.90;;;;;;5069406;28;20052;-60
2021/06/17 01:05:16;;;;;;;3.72;2.40;;;24.60;99.90;;;;;;5068994;28;20364;-60
2021/06/17 01:08:02;;;;;;;2.50;2.30;;;24.60;99.90;;;;;;5069411;28;20031;-61
2021/06/17 01:11:06;;;;;;;2.92;2.63;;;24.40;99.90;;;;;;5069286;28;20112;-61
2021/06/17 01:14:00;;;;;;;3.20;2.40;;;24.50;99.90;;;;;;5069703;28;20025;-61
2021/06/17 01:16:33;;;;;;;2.97;2.67;;;24.40;99.90;;;;;;5071414;28;20043;-61
2021/06/17 01:19:05;;;;;;;3.00;2.53;;;24.30;99.90;;;;;;5069836;28;20509;-61
2021/06/17 01:22:01;;;;;;;3.92;2.63;;;24.40;99.90;;;;;;5069542;28;20029;-61
2021/06/17 01:24:49;;;;;;;2.63;2.25;;;24.40;99.90;;;;;;5068963;28;20024;-61
2021/06/17 01:27:36;;;;;;;1.80;1.70;;;24.50;99.90;;;;;;5069907;28;20394;-61
2021/06/17 01:30:07;;;;;;;3.28;1.98;;;24.60;99.90;;;;;;5069505;28;20051;-60
2021/06/17 01:32:34;;;;;;;2.17;1.90;;;24.70;99.90;;;;;;5068672;28;20029;-61
2021/06/17 01:35:01;;;;;;;1.80;1.70;;;24.70;99.90;;;;;;5069586;28;20490;-61
2021/06/17 01:37:28;;;;;;;1.83;1.40;;;24.70;99.90;;;;;;5068780;28;20078;-61
2021/06/17 01:39:56;;;;;;;1.70;1.60;;;24.80;99.90;;;;;;5069343;28;20032;-61
2021/06/17 01:42:24;;;;;;;2.03;1.83;;;24.70;99.90;;;;;;5067196;28;20077;-61
2021/06/17 01:44:54;;;;;;;2.38;1.77;;;24.60;99.90;;;;;;5068753;28;20491;-61
2021/06/17 01:47:21;;;;;;;1.95;1.65;;;24.80;99.90;;;;;;5068870;28;20024;-61
2021/06/17 01:49:49;;;;;;;1.83;1.73;;;24.70;99.90;;;;;;5068633;28;20032;-60
2021/06/17 01:52:15;;;;;;;1.65;1.55;;;24.80;99.90;;;;;;5067726;28;20604;-61
2021/06/17 01:54:43;;;;;;;1.55;1.45;;;24.90;99.90;;;;;;5067828;28;20107;-60
2021/06/17 01:57:10;;;;;;;1.50;1.40;;;25.00;99.90;;;;;;5068565;28;20067;-60
2021/06/17 01:59:36;;;;;;;1.92;1.83;;;25.00;99.90;;;;;;5068543;28;20490;-61
2021/06/17 02:02:03;;;;;;;1.98;1.52;;;24.80;99.90;;;;;;5068789;28;20029;-60
2021/06/17 02:04:30;;;;;;;1.60;1.50;;;24.70;99.90;;;;;;5068844;28;20103;-61
2021/06/17 02:06:58;;;;;;;2.03;1.83;;;24.80;99.90;;;;;;5068166;28;20029;-61
2021/06/17 02:09:26;;;;;;;1.85;1.75;;;24.80;99.90;;;;;;5068620;28;20032;-61
2021/06/17 02:11:52;;;;;;;1.80;1.70;;;24.70;99.90;;;;;;5068342;28;20475;-61
2021/06/17 02:14:19;;;;;;;1.92;1.73;;;24.70;99.90;;;;;;5068477;28;20024;-61
2021/06/17 02:16:46;;;;;;;1.90;1.75;;;24.60;99.90;;;;;;5068105;28;20114;-61
2021/06/17 02:19:16;;;;;;;2.20;2.08;;;24.60;99.90;;;;;;5068054;28;20039;-61
2021/06/17 02:21:44;;;;;;;2.38;2.17;;;24.50;99.90;;;;;;5071654;28;20089;-60
2021/06/17 02:24:12;;;;;;;2.05;1.90;;;24.50;99.90;;;;;;5088645;28;20027;-61
2021/06/17 02:26:42;;;;;;;2.10;1.90;;;24.60;99.90;;;;;;5087190;28;20107;-61
2021/06/17 02:29:12;;;;;;;2.78;2.42;;;24.60;99.90;;;;;;5087159;28;20012;-61
2021/06/17 02:31:43;;;;;;;2.45;2.25;;;24.50;99.90;;;;;;5082707;28;20028;-61
2021/06/17 02:34:10;;;;;;;2.47;2.28;;;24.40;99.90;;;;;;5067923;28;20487;-61
2021/06/17 02:36:39;;;;;;;2.13;1.70;;;24.50;99.90;;;;;;5067798;28;20032;-61
2021/06/17 02:39:07;;;;;;;1.70;1.60;;;24.50;99.90;;;;;;5068020;28;20479;-61
2021/06/17 02:41:35;;;;;;;1.60;1.50;;;24.50;99.90;;;;;;5066900;28;20583;-61
2021/06/17 02:44:02;;;;;;;1.50;1.40;;;24.60;99.90;;;;;;5068493;28;20028;-61
2021/06/17 02:46:28;;;;;;;1.58;1.48;;;24.50;99.90;;;;;;5067857;28;20055;-60
2021/06/17 02:48:55;;;;;;;1.83;1.70;;;24.70;99.90;;;;;;5067473;28;20059;-61
2021/06/17 02:51:21;;;;;;;2.03;1.75;;;24.60;99.90;;;;;;5067458;28;20390;-60
2021/06/17 02:53:48;;;;;;;1.83;1.70;;;24.50;99.90;;;;;;5066893;28;20402;-60
2021/06/17 02:56:20;;;;;;;1.70;1.60;;;24.60;99.90;;;;;;5067440;28;20422;-61
2021/06/17 02:59:07;;;;;;;1.80;1.70;;;24.60;99.90;;;;;;5067133;28;20028;-60
2021/06/17 03:02:03;;;;;;;1.52;1.30;;;24.60;99.90;;;;;;5067029;28;20055;-60
2021/06/17 03:04:45;;;;;;;1.75;1.65;;;24.60;99.90;;;;;;5085728;28;20478;-61
2021/06/17 03:07:23;;;;;;;1.60;1.50;;;24.60;99.90;;;;;;5087715;28;20024;-61
2021/06/17 03:10:10;;;;;;;2.20;1.80;;;24.50;99.90;;;;;;5087271;28;20024;-61
2021/06/17 03:12:38;;;;;;;1.63;1.52;;;24.50;99.90;;;;;;5086283;28;20044;-61
2021/06/17 03:15:07;;;;;;;2.03;1.80;;;24.70;99.90;;;;;;5087509;28;20035;-60
2021/06/17 03:17:35;;;;;;;1.80;1.70;;;24.80;99.90;;;;;;5087521;28;20147;-60
2021/06/17 03:20:04;;;;;;;1.75;1.65;;;24.70;99.90;;;;;;5088171;28;20107;-60
2021/06/17 03:22:32;;;;;;;1.50;1.40;;;24.60;99.90;;;;;;5073115;28;20032;-61
2021/06/17 03:25:05;;;;;;;1.83;1.73;;;24.00;99.90;;;;;;5067664;28;20069;-62
2021/06/17 03:27:32;;;;;;;2.15;2.05;;;24.10;99.90;;;;;;5067351;28;20497;-63
2021/06/17 03:30:00;;;;;;;1.70;1.60;;;24.00;99.90;;;;;;5067151;28;20025;-62
2021/06/17 03:32:27;;;;;;;1.83;1.73;;;24.00;99.90;;;;;;5066383;28;20024;-61
2021/06/17 03:34:54;;;;;;;1.90;1.70;;;23.90;99.90;;;;;;5067168;28;20032;-61
2021/06/17 03:37:21;;;;;;;1.90;1.80;;;24.00;99.90;;;;;;5066756;28;20032;-61
2021/06/17 03:39:48;;;;;;;1.92;1.83;;;24.00;99.90;;;;;;5066561;28;20387;-61
2021/06/17 03:42:16;;;;;;;1.42;1.33;;;24.10;99.90;;;;;;5065845;28;20064;-61
2021/06/17 03:44:43;;;;;;;1.70;1.60;;;23.90;99.90;;;;;;5066508;28;20032;-61
2021/06/17 03:47:11;;;;;;;1.80;1.70;;;23.90;99.90;;;;;;5066704;28;20487;-61
2021/06/17 03:49:38;;;;;;;1.50;1.40;;;23.80;99.90;;;;;;5066455;28;20090;-61
2021/06/17 03:52:04;;;;;;;1.92;1.83;;;23.80;99.90;;;;;;5072772;28;20560;-61
2021/06/17 03:54:32;;;;;;;1.65;1.55;;;23.70;99.90;;;;;;5067016;28;20093;-61
2021/06/17 03:57:00;;;;;;;1.70;1.60;;;23.80;99.90;;;;;;5066530;28;20012;-61
2021/06/17 03:59:34;;;;;;;1.98;1.73;;;23.70;99.90;;;;;;5066110;28;20031;-61
2021/06/17 04:02:01;;;;;;;1.85;1.75;;;23.70;99.90;;;;;;5074965;28;20099;-61
2021/06/17 04:04:26;;;;;;;2.05;1.90;;;23.60;99.90;;;;;;5086363;28;20032;-60
2021/06/17 04:06:55;;;;;;;1.75;1.65;;;23.70;99.90;;;;;;5072912;28;20509;-60
2021/06/17 04:09:28;;;;;;;2.00;1.80;;;23.80;99.90;;;;;;5066454;28;20028;-61
2021/06/17 04:12:05;;;;;;;1.42;1.33;;;23.90;99.90;;;;;;5066295;28;20162;-61
2021/06/17 04:14:33;;;;;;;2.00;1.90;;;23.90;99.90;;;;;;5066610;28;20574;-61
2021/06/17 04:17:01;;;;;;;2.55;1.73;;;23.70;99.90;;;;;;5066168;28;20472;-61
2021/06/17 04:19:29;;;;;;;1.75;1.65;;;23.90;99.90;;;;;;5066210;28;20033;-60
2021/06/17 04:22:01;;;;;;;1.65;1.55;;;23.80;99.90;;;;;;5078320;28;20032;-60
2021/06/17 04:24:30;;;;;;;1.50;1.40;;;24.10;99.90;;;;;;5086314;28;20020;-60
2021/06/17 04:26:56;;;;;;;1.70;1.60;;;24.20;99.90;;;;;;5078082;28;20021;-61
2021/06/17 04:29:22;;;;;;;1.70;1.60;;;24.30;99.90;;;;;;5071143;28;20459;-60
2021/06/17 04:31:50;;;;;;;1.80;1.70;;;24.20;99.90;;;;;;5066018;28;20032;-60
2021/06/17 04:34:18;;;;;;;1.60;1.50;;;24.30;99.90;;;;;;5066167;28;20163;-60
2021/06/17 04:36:46;;;;;;;1.70;1.60;;;24.50;99.90;;;;;;5065975;28;20025;-61
2021/06/17 04:39:12;;;;;;;1.70;1.60;;;24.50;99.90;;;;;;5065841;28;20032;-60
2021/06/17 04:41:39;;;;;;;1.50;1.40;;;24.60;99.90;;;;;;5065658;28;20165;-60
2021/06/17 04:44:06;;;;;;;1.75;1.65;;;24.40;99.90;;;;;;5066159;28;20047;-60
2021/06/17 04:46:34;;;;;;;1.75;1.60;;;24.30;99.90;;;;;;5069952;28;20038;-60
2021/06/17 04:49:00;;;;;;;1.63;1.40;;;24.50;99.90;;;;;;5072091;28;20032;-60
2021/06/17 04:51:29;;;;;;;2.30;1.80;;;24.50;99.90;;;;;;5065719;28;20059;-60
2021/06/17 04:53:55;;;;;;;1.80;1.70;;;24.60;99.90;;;;;;5079796;28;20031;-61
2021/06/17 04:56:21;;;;;;;1.70;1.60;;;24.50;99.90;;;;;;5084217;28;20024;-60
2021/06/17 04:58:49;;;;;;;1.70;1.60;;;24.50;99.90;;;;;;5083668;28;20055;-60
2021/06/17 05:01:17;;;;;;;1.40;1.30;;;24.50;99.90;;;;;;5084323;28;20406;-60
2021/06/17 05:03:44;;;;;;;1.50;1.40;;;24.40;99.90;;;;;;5084056;28;20095;-61
2021/06/17 05:06:11;;;;;;;1.85;1.75;;;24.00;99.90;;;;;;5084555;28;20406;-61
2021/06/17 05:11:21;;;;;;;1.52;1.42;;;24.30;99.90;;;;;;5082686;28;20087;-61
2021/06/17 05:13:47;;;;;;;2.10;2.00;;;24.60;99.90;;;;;;5084749;28;20036;-61
2021/06/17 05:16:13;;;;;;;1.50;1.40;;;24.50;99.90;;;;;;5065802;28;20029;-61
2021/06/17 05:18:39;;;;;;;1.77;1.67;;;24.50;99.90;;;;;;5063852;28;20071;-61
2021/06/17 05:21:07;;;;;;;1.60;1.50;;;24.60;99.90;;;;;;5064325;28;20064;-61
2021/06/17 05:23:37;;;;;;;2.10;1.90;;;24.40;99.90;;;;;;5076518;28;20409;-60
2021/06/17 05:26:04;;;;;;;2.00;1.80;;;24.40;99.90;;;;;;5084228;28;20078;-61
2021/06/17 05:28:30;;;;;;;2.00;1.90;;;24.30;99.90;;;;;;5075560;28;20556;-61
2021/06/17 05:30:59;;;;;;;2.25;2.05;;;24.20;99.90;;;;;;5067964;28;20418;-61
2021/06/17 05:33:27;;;;;;;1.88;1.77;;;24.10;99.90;;;;;;5067433;28;20032;-61
2021/06/17 05:35:53;;;;;;;1.65;1.55;;;24.10;99.90;;;;;;5067562;28;20414;-61
2021/06/17 05:38:20;;;;;;;2.65;2.45;;;24.10;99.90;;;;;;5066562;28;20090;-61
2021/06/17 05:40:47;;;;;;;2.47;2.00;;;23.90;99.90;;;;;;5087724;28;20036;-60
2021/06/17 05:43:13;;;;;;;2.15;2.03;;;24.00;99.90;;;;;;5086684;28;20012;-61
2021/06/17 05:45:39;;;;;;;1.77;1.67;;;24.10;99.90;;;;;;5087213;28;20490;-61
2021/06/17 05:48:05;;;;;;;2.70;2.42;;;24.10;99.90;;;;;;5083899;28;20119;-61
2021/06/17 05:50:31;;;;;;;2.40;2.05;;;23.90;99.90;;;;;;5067810;28;20062;-61
2021/06/17 05:52:56;;;;;;;2.10;1.92;;;24.00;99.90;;;;;;5066074;28;20052;-61
2021/06/17 05:55:22;;;;;;;2.22;2.03;;;24.00;99.90;;;;;;5066861;28;20082;-60
2021/06/17 05:57:49;;;;;;;2.10;1.90;;;24.00;99.90;;;;;;5066497;28;20027;-58
2021/06/17 06:00:16;;;;;;;2.42;1.83;;;24.20;99.90;;;;;;5066926;28;20247;-58
2021/06/17 06:02:42;;;;;;;2.05;1.63;;;24.30;99.90;;;;;;5077769;28;20052;-58
2021/06/17 06:05:08;;;;;;;2.35;1.65;;;24.40;99.90;;;;;;5068894;28;20016;-59
2021/06/17 06:07:34;;;;;;;1.50;1.40;;;24.40;99.90;;;;;;5074615;28;20137;-59
2021/06/17 06:10:01;;;;;;;1.60;1.50;;;24.40;99.90;;;;;;5088442;28;20051;-59
2021/06/17 06:12:27;;;;;;;1.65;1.55;;;24.30;99.90;;;;;;5078503;28;20028;-58
2021/06/17 06:14:53;;;;;;;1.40;1.30;;;24.30;99.90;;;;;;5067919;28;20024;-58
2021/06/17 06:17:19;;;;;;;1.60;1.50;;;24.50;99.90;;;;;;5070827;28;20029;-59
2021/06/17 06:19:45;;;;;;;1.30;1.20;;;24.40;99.90;;;;;;5076859;28;20390;-58
2021/06/17 06:22:10;;;;;;;1.88;1.70;;;24.50;99.90;;;;;;5086851;28;20490;-58
2021/06/17 06:24:38;;;;;;;1.83;1.60;;;24.40;99.90;;;;;;5086512;28;20030;-58
2021/06/17 06:27:05;;;;;;;1.58;1.48;;;24.60;99.90;;;;;;5076570;28;20077;-59
2021/06/17 06:29:31;;;;;;;1.52;1.42;;;24.60;99.90;;;;;;5080194;28;20029;-58
2021/06/17 06:31:58;;;;;;;1.50;1.40;;;24.80;99.90;;;;;;5077856;28;20032;-59
2021/06/17 06:34:24;;;;;;;1.30;1.20;;;24.80;99.90;;;;;;5078550;28;20526;-59
2021/06/17 06:36:51;;;;;;;1.30;1.20;;;24.70;99.90;;;;;;5080566;28;20129;-59
2021/06/17 06:39:18;;;;;;;1.73;1.63;;;24.90;99.90;;;;;;5107924;28;20026;-58
2021/06/17 06:41:44;;;;;;;2.05;1.85;;;24.80;99.90;;;;;;5108385;28;20043;-58
2021/06/17 06:44:10;;;;;;;1.92;1.83;;;24.70;99.90;;;;;;5108602;28;20031;-58
2021/06/17 06:46:40;;;;;;;2.30;2.10;;;24.80;99.90;;;;;;5108248;28;20034;-57
2021/06/17 06:49:06;;;;;;;1.90;1.80;;;24.70;99.90;;;;;;5083831;28;20028;-58
2021/06/17 06:51:36;;;;;;;2.67;2.42;;;24.70;99.90;;;;;;5087799;28;20028;-61
2021/06/17 06:54:02;;;;;;;3.08;2.60;;;24.50;99.90;;;;;;5087805;28;20024;-60
2021/06/17 06:56:28;;;;;;;2.42;2.22;;;24.50;99.90;;;;;;5086053;28;20039;-60
2021/06/17 06:58:54;;;;;;;1.90;1.77;;;24.80;99.90;;;;;;5081757;28;20035;-60
2021/06/17 07:01:20;;;;;;;1.60;1.50;;;24.90;99.90;;;;;;5067453;28;20040;-60
2021/06/17 07:03:46;;;;;;;2.10;1.70;;;25.00;99.90;;;;;;5067432;28;20449;-60
2021/06/17 07:06:11;;;;;;;2.67;1.80;;;24.90;99.90;;;;;;5066466;28;20056;-60
2021/06/17 07:08:37;;;;;;;2.03;1.83;;;24.90;99.90;;;;;;5070249;28;20123;-60
2021/06/17 07:11:03;;;;;;;1.90;1.70;;;24.90;99.90;;;;;;5077554;28;20036;-61
2021/06/17 07:13:29;;;;;;;1.65;1.50;;;24.90;99.90;;;;;;5087789;28;20027;-60
2021/06/17 07:15:55;;;;;;;1.55;1.45;;;25.00;99.90;;;;;;5084974;28;20040;-60
2021/06/17 07:18:21;;;;;;;1.70;1.60;;;25.10;99.90;;;;;;5076277;28;20035;-59
2021/06/17 07:20:48;;;;;;;1.23;1.20;;;25.20;99.90;;;;;;5071081;28;20024;-60
2021/06/17 07:23:15;;;;;;;1.45;1.35;;;25.30;99.90;;;;;;5067153;28;20025;-60
2021/06/17 07:25:41;;;;;;;1.65;1.55;;;25.10;99.90;;;;;;5076038;28;20024;-60
2021/06/17 07:28:07;;;;;;;2.17;1.77;;;25.20;99.90;;;;;;5075460;28;20013;-60
2021/06/17 07:30:34;;;;;;;1.70;1.60;;;25.10;99.90;;;;;;5071551;28;20131;-60
2021/06/17 07:32:59;;;;;;;1.80;1.70;;;25.20;99.90;;;;;;5073876;28;20070;-60
2021/06/17 07:35:25;;;;;;;1.50;1.40;;;25.20;99.90;;;;;;5069703;28;20036;-60
2021/06/17 07:37:51;;;;;;;1.98;1.80;;;25.30;99.90;;;;;;5082081;28;20023;-60
2021/06/17 07:40:17;;;;;;;1.80;1.63;;;25.30;99.90;;;;;;5071848;28;20024;-60
2021/06/17 07:42:44;;;;;;;2.63;2.42;;;25.50;99.90;;;;;;5069018;28;20032;-61
2021/06/17 07:45:11;;;;;;;3.22;2.65;;;25.30;99.90;;;;;;5068227;28;20020;-60
2021/06/17 07:47:37;;;;;;;3.75;3.15;;;25.20;99.90;;;;;;5067200;28;20029;-58
2021/06/17 07:50:05;;;;;;;3.10;2.80;;;25.10;99.90;;;;;;5079404;28;20085;-59
2021/06/17 07:52:31;;;;;;;3.58;3.28;;;25.20;99.90;;;;;;5079589;28;20016;-59
2021/06/17 07:54:57;;;;;;;2.75;2.55;;;25.20;99.90;;;;;;5074009;28;20025;-58
2021/06/17 07:57:22;;;;;;;2.60;2.40;;;25.40;99.90;;;;;;5094567;28;20050;-58
2021/06/17 07:59:49;;;;;;;1.98;1.88;;;25.60;99.90;;;;;;5105819;28;20023;-58
2021/06/17 08:02:16;;;;;;;3.40;2.83;;;25.70;99.90;;;;;;5086681;28;20085;-59
2021/06/17 08:04:42;;;;;;;2.40;2.20;;;25.60;99.90;;;;;;5079630;28;20028;-59
2021/06/17 08:07:08;;;;;;;2.97;1.80;;;25.70;99.90;;;;;;5086223;28;20024;-58
2021/06/17 08:09:34;;;;;;;1.83;1.73;;;25.90;99.90;;;;;;5083935;28;20028;-60
2021/06/17 08:12:00;;;;;;;1.85;1.75;;;25.90;99.90;;;;;;5085214;28;20047;-60
2021/06/17 08:14:26;;;;;;;2.50;2.30;;;25.90;99.90;;;;;;5082272;28;20024;-60
2021/06/17 08:16:54;;;;;;;2.58;2.38;;;25.90;99.90;;;;;;5085734;28;20024;-60
2021/06/17 08:19:26;;;;;;;1.80;1.70;;;26.00;99.90;;;;;;5075230;28;20505;-62
2021/06/17 08:21:52;;;;;;;2.33;2.13;;;26.10;99.90;;;;;;5086233;28;20024;-60
2021/06/17 08:24:18;;;;;;;2.38;2.17;;;26.10;99.90;;;;;;5086824;28;20016;-60
2021/06/17 08:26:43;;;;;;;2.55;2.35;;;26.30;99.90;;;;;;5069776;28;20051;-61
2021/06/17 08:29:10;;;;;;;2.67;2.20;;;26.20;99.90;;;;;;5067987;28;20442;-61
2021/06/17 08:31:38;;;;;;;2.30;2.10;;;26.10;99.90;;;;;;5084910;28;20028;-60
2021/06/17 08:34:04;;;;;;;2.45;2.25;;;26.20;99.90;;;;;;5082677;28;20038;-61
2021/06/17 08:36:29;;;;;;;2.30;2.10;;;26.30;99.90;;;;;;5075576;28;20103;-61
2021/06/17 08:38:55;;;;;;;2.30;2.10;;;26.30;99.90;;;;;;5085373;28;20028;-60
2021/06/17 08:41:21;;;;;;;2.28;2.08;;;26.40;99.90;;;;;;5085869;28;20024;-61
2021/06/17 08:43:47;;;;;;;1.83;1.73;;;26.50;99.90;;;;;;5078112;28;20490;-60
2021/06/17 08:46:13;;;;;;;2.63;2.42;;;26.60;99.90;;;;;;5065578;28;20036;-60
2021/06/17 08:48:40;;;;;;;2.40;2.20;;;26.40;99.90;;;;;;5065330;28;20033;-60
2021/06/17 08:51:06;;;;;;;3.65;2.45;;;26.60;99.90;;;;;;5063276;28;20024;-60
2021/06/17 08:53:34;;;;;;;2.25;2.05;;;26.60;99.90;;;;;;5064897;28;20025;-60
2021/06/17 08:55:59;;;;;;;2.70;2.50;;;26.50;99.90;;;;;;5067930;28;20036;-61
2021/06/17 08:58:25;;;;;;;2.92;2.67;;;26.40;99.90;;;;;;5075516;28;20071;-60
2021/06/17 09:00:51;;;;;;;1.88;1.77;;;26.50;99.90;;;;;;5072823;28;20043;-60
2021/06/17 09:03:19;;;;;;;1.83;1.73;;;26.70;99.90;;;;;;5068345;28;20538;-60
2021/06/17 09:05:55;;;;;;;1.90;1.80;;;26.80;99.90;;;;;;5069911;28;20036;-60
2021/06/17 09:08:33;;;;;;;3.42;2.55;;;26.90;99.90;;;;;;5070981;28;20017;-61
2021/06/17 09:10:59;;;;;;;2.45;2.25;;;26.80;99.90;;;;;;5082589;28;20025;-60
2021/06/17 09:13:33;;;;;;;2.40;2.20;;;27.00;99.90;;;;;;5069014;28;20414;-60
2021/06/17 09:16:01;;;;;;;2.55;2.22;;;27.00;99.90;;;;;;5069020;28;20048;-60
2021/06/17 09:18:32;;;;;;;2.42;2.22;;;27.00;99.90;;;;;;5071917;28;20028;-60
2021/06/17 09:21:04;;;;;;;2.05;1.90;;;27.30;99.90;;;;;;5074950;28;20035;-61
2021/06/17 09:23:41;;;;;;;2.38;2.17;;;27.50;99.90;;;;;;5079410;28;20103;-60
2021/06/17 09:26:09;;;;;;;1.90;1.80;;;27.50;99.90;;;;;;5083592;28;20020;-61
2021/06/17 09:28:45;;;;;;;2.88;2.60;;;27.60;99.90;;;;;;5076153;28;20032;-61
2021/06/17 09:31:25;;;;;;;2.55;2.35;;;27.40;99.90;;;;;;5072890;28;20024;-61
2021/06/17 09:33:53;;;;;;;3.45;2.60;;;27.30;99.90;;;;;;5086838;28;20032;-61
2021/06/17 09:36:26;;;;;;;4.10;2.95;;;27.20;99.90;;;;;;5088978;28;20032;-62
2021/06/17 09:38:55;;;;;;;2.78;2.58;;;27.10;99.90;;;;;;5068630;28;20402;-61
2021/06/17 09:41:46;;;;;;;2.80;2.60;;;27.10;99.90;;;;;;5068693;28;20032;-61
2021/06/17 09:44:37;;;;;;;2.60;2.40;;;27.10;99.90;;;;;;5075156;28;20422;-61
2021/06/17 09:47:05;;;;;;;2.88;2.67;;;27.00;99.90;;;;;;5067786;28;20028;-62
2021/06/17 09:49:31;;;;;;;2.47;2.28;;;27.00;99.90;;;;;;5073232;28;20039;-60
2021/06/17 09:51:56;;;;;;;7.05;2.53;;;27.00;99.90;;;;;;5087954;28;20028;-60
2021/06/17 09:54:29;;;;;;;2.45;2.25;;;27.00;99.90;;;;;;5072574;28;20857;-60
2021/06/17 09:56:59;;;;;;;2.70;2.30;;;27.00;99.90;;;;;;5068391;28;20044;-60
2021/06/17 09:59:45;;;;;;;2.05;1.83;;;27.00;99.90;;;;;;5069284;28;20027;-60
2021/06/17 10:02:23;;;;;;;2.53;2.33;;;27.00;99.90;;;;;;5081670;28;20038;-60
2021/06/17 10:04:49;;;;;;;2.17;2.00;;;26.90;99.90;;;;;;5088433;28;20030;-60
2021/06/17 10:07:19;;;;;;;1.80;1.70;;;27.00;99.90;;;;;;5088043;28;20063;-60
2021/06/17 10:09:46;;;;;;;1.80;1.70;;;27.10;99.90;;;;;;5086369;28;20031;-60
2021/06/17 10:12:14;;;;;;;1.75;1.65;;;27.10;99.90;;;;;;5088365;28;20031;-60
2021/06/17 10:14:39;;;;;;;2.33;2.13;;;27.10;99.90;;;;;;5086888;28;20477;-60
2021/06/17 10:17:07;;;;;;;2.75;2.40;;;26.90;99.90;;;;;;5068077;28;20068;-61
2021/06/17 10:19:33;;;;;;;3.05;2.75;;;26.80;99.90;;;;;;5071716;28;20306;-60
2021/06/17 10:22:02;;;;;;;2.40;2.20;;;26.70;99.90;;;;;;5069623;28;20032;-61
2021/06/17 10:24:33;;;;;;;3.22;2.60;;;26.80;99.90;;;;;;5067791;28;20070;-61
2021/06/17 10:27:11;;;;;;;3.20;2.40;;;26.60;99.90;;;;;;5068627;28;20039;-61
2021/06/17 10:29:48;;;;;;;2.53;2.33;;;26.50;99.90;;;;;;5067203;28;20025;-61
2021/06/17 10:32:17;;;;;;;2.53;2.30;;;26.40;99.90;;;;;;5069032;28;20048;-61
2021/06/17 10:34:57;;;;;;;3.10;2.80;;;26.30;99.90;;;;;;5066596;28;20024;-60
2021/06/17 10:37:31;;;;;;;3.00;2.80;;;26.20;99.90;;;;;;5066399;28;20036;-61
2021/06/17 10:40:02;;;;;;;;;;;26.30;99.90;;;;;;5087154;28;20107;-61
2021/06/17 10:42:32;;;;;;;3.88;3.47;;;26.10;99.90;;;;;;5072227;28;20374;-61
2021/06/17 10:45:07;;;;;;;3.67;3.03;;;26.20;99.90;;;;;;5068058;28;20032;-61
2021/06/17 10:47:40;;;;;;;2.90;2.70;;;26.30;99.90;;;;;;5076733;28;20537;-60
2021/06/17 10:50:29;;;;;;;2.95;2.67;;;26.30;99.90;;;;;;5070910;28;20056;-59
2021/06/17 10:53:17;;;;;;;3.38;3.08;;;26.40;99.90;;;;;;5065790;28;20067;-61
2021/06/17 10:55:56;;;;;;;4.00;2.47;;;26.30;99.90;;;;;;5086775;28;20406;-60
2021/06/17 10:58:57;;;;;;;2.38;2.17;;;26.40;99.90;;;;;;5081505;28;20027;-59
2021/06/17 11:01:26;;;;;;;4.25;2.42;;;26.60;99.90;;;;;;5055342;28;20095;-59
2021/06/17 11:04:16;;;;;;;2.97;2.67;;;26.70;99.90;;;;;;5079891;28;20037;-59
2021/06/17 11:06:48;;;;;;;2.58;2.38;;;26.70;99.90;;;;;;5080125;28;20089;-59
2021/06/17 11:09:32;;;;;;;2.42;2.22;;;26.70;99.90;;;;;;5075684;28;20036;-60
2021/06/17 11:11:58;;;;;;;;;;;26.70;99.90;;;;;;5070099;28;20032;-61
2021/06/17 11:14:24;;;;;;;2.50;2.30;;;26.60;99.90;;;;;;5083053;28;19967;-60
2021/06/17 11:16:54;;;;;;;3.17;2.88;;;26.50;99.90;;;;;;5067466;28;20526;-60
2021/06/17 11:19:20;;;;;;;3.22;2.92;;;26.40;99.90;;;;;;5068204;28;20119;-59
2021/06/17 11:21:47;;;;;;;4.13;3.20;;;26.20;99.90;;;;;;5071212;28;20112;-59
2021/06/17 11:24:17;;;;;;;2.80;2.60;;;26.30;99.90;;;;;;5069493;28;21677;-59
2021/06/17 11:26:50;;;;;;;2.53;2.33;;;26.50;99.90;;;;;;5072027;28;20020;-60
2021/06/17 11:29:20;;;;;;;3.17;2.90;;;26.40;99.90;;;;;;5079912;28;20030;-61
2021/06/17 11:31:50;;;;;;;2.38;2.17;;;26.50;99.90;;;;;;5072285;28;20035;-61
2021/06/17 11:34:31;;;;;;;2.60;2.40;;;26.60;99.90;;;;;;5067928;28;20032;-60
2021/06/17 11:37:04;;;;;;;3.33;2.28;;;26.80;99.90;;;;;;5077196;28;20100;-60
2021/06/17 11:39:32;;;;;;;2.50;2.30;;;26.90;99.90;;;;;;5083354;27;20075;-62
2021/06/17 11:42:00;;;;;;;2.38;2.17;;;26.90;99.90;;;;;;5066474;28;20073;-59
2021/06/17 11:44:28;;;;;;;2.05;1.75;;;26.90;99.90;;;;;;5076843;28;20116;-59
2021/06/17 11:47:03;;;;;;;1.80;1.70;;;27.00;99.90;;;;;;5073122;28;20064;-59
2021/06/17 11:49:32;;;;;;;1.77;1.67;;;27.00;99.90;;;;;;5086483;28;20028;-59
2021/06/17 11:51:58;;;;;;;1.83;1.73;;;27.00;99.90;;;;;;5072829;28;20525;-59
2021/06/17 11:54:25;;;;;;;1.90;1.77;;;27.10;99.90;;;;;;5067711;28;20037;-59
2021/06/17 11:56:59;;;;;;;1.48;1.38;;;27.10;99.90;;;;;;5069643;28;20024;-59
2021/06/17 11:59:28;;;;;;;;;;;27.10;99.90;;;;;;5066437;28;20059;-58
2021/06/17 12:02:06;;;;;;;1.80;1.70;;;27.00;99.90;;;;;;5075219;28;19923;-59
2021/06/17 12:05:02;;;;;;;1.52;1.42;;;27.30;99.90;;;;;;5073717;28;20028;-59
2021/06/17 12:07:32;;;;;;;3.00;1.88;;;27.30;99.90;;;;;;5068934;28;20021;-58
2021/06/17 12:10:06;;;;;;;2.63;2.10;;;27.20;99.90;;;;;;5071321;28;20356;-59
2021/06/17 12:12:33;;;;;;;1.92;1.83;;;27.40;99.90;;;;;;5086534;28;20051;-58
2021/06/17 12:15:00;;;;;;;1.48;1.38;;;27.50;99.90;;;;;;5085994;28;20405;-59
2021/06/17 12:17:34;;;;;;;1.70;1.60;;;27.50;99.90;;;;;;5077042;28;20038;-59
2021/06/17 12:20:13;;;;;;;2.03;1.85;;;27.70;99.90;;;;;;5085021;28;20032;-59
2021/06/17 12:22:40;;;;;;;1.60;1.50;;;28.00;99.90;;;;;;5069243;28;20498;-59
2021/06/17 12:25:06;;;;;;;1.60;1.50;;;28.20;99.90;;;;;;5065685;28;20461;-59
2021/06/17 12:27:33;;;;;;;1.55;1.45;;;28.40;99.90;;;;;;5068123;28;20103;-59
2021/06/17 12:30:22;;;;;;;2.60;1.88;;;28.30;99.90;;;;;;5066788;28;20418;-59
2021/06/17 12:32:47;;;;;;;3.03;2.50;;;28.20;99.90;;;;;;5066062;28;20027;-59
2021/06/17 12:35:14;;;;;;;2.15;1.88;;;28.20;99.90;;;;;;5067108;28;20454;-59
2021/06/17 12:37:59;;;;;;;3.28;2.97;;;28.20;99.90;;;;;;5074444;28;20036;-59
2021/06/17 12:40:29;;;;;;;3.10;2.80;;;28.00;99.90;;;;;;5088528;28;20433;-59
2021/06/17 12:43:09;;;;;;;2.60;2.40;;;28.20;99.90;;;;;;5090069;28;20028;-58
2021/06/17 12:45:35;;;;;;;2.15;1.95;;;28.60;99.90;;;;;;5088281;28;20624;-59
2021/06/17 12:48:09;;;;;;;1.80;1.70;;;28.80;99.90;;;;;;5076062;28;20075;-59
2021/06/17 12:53:20;;;;;;;1.58;1.48;;;29.20;99.90;;;;;;5081069;28;20080;-59
2021/06/17 12:55:51;;;;;;;1.60;1.50;;;29.30;99.90;;;;;;5070640;28;20025;-59
2021/06/17 12:58:17;;;;;;;1.40;1.30;;;29.40;99.90;;;;;;5068744;28;20055;-59
2021/06/17 13:00:59;;;;;;;1.80;1.70;;;29.40;99.90;;;;;;5070548;28;20475;-59
2021/06/17 13:03:28;;;;;;;2.20;1.92;;;29.40;99.90;;;;;;5087913;28;20031;-59
2021/06/17 13:05:55;;;;;;;1.90;1.73;;;29.60;99.90;;;;;;5069643;28;20028;-58